createdAt,value
2018-11-07T00:02:17.267Z,73.77
2018-11-07T00:04:46.164Z,64.77
2018-11-07T00:07:15.019Z,64.20
2018-11-07T00:09:43.889Z,78.10
2018-11-07T00:12:12.775Z,78.97
2018-11-07T00:14:41.625Z,62.27
2018-11-07T00:17:10.620Z,65.50
2018-11-07T00:19:39.529Z,75.90
2018-11-07T00:22:08.360Z,96.17
2018-11-07T00:24:37.194Z,96.40
2018-11-07T00:27:06.066Z,67.03
2018-11-07T00:29:34.884Z,68.87
2018-11-07T00:32:03.823Z,67.70
2018-11-07T00:34:32.678Z,79.10
2018-11-07T00:37:01.561Z,81.80
2018-11-07T00:39:30.413Z,82.33
2018-11-07T00:42:02.310Z,97.50
2018-11-07T00:44:31.346Z,118.37
2018-11-07T00:47:00.205Z,126.17
2018-11-07T00:49:29.116Z,115.60
2018-11-07T00:51:58.098Z,112.03
2018-11-07T00:54:26.914Z,102.43
2018-11-07T00:56:55.805Z,114.33
2018-11-07T00:59:24.669Z,122.80
2018-11-07T01:01:53.576Z,84.83
2018-11-07T01:07:20.033Z,78.27
2018-11-07T01:09:48.808Z,82.30
2018-11-07T01:12:17.673Z,78.00
2018-11-07T01:14:46.480Z,83.67
2018-11-07T01:17:15.298Z,78.30
2018-11-07T01:19:44.103Z,66.07
2018-11-07T01:22:12.964Z,67.00
2018-11-07T01:24:41.728Z,65.40
2018-11-07T01:27:10.524Z,61.23
2018-11-07T01:29:39.305Z,63.77
2018-11-07T01:32:08.131Z,76.93
2018-11-07T01:34:36.964Z,60.83
2018-11-07T01:37:05.811Z,74.07
2018-11-07T01:39:34.637Z,86.27
2018-11-07T01:42:03.470Z,56.47
2018-11-07T01:44:32.270Z,62.17
2018-11-07T01:47:01.068Z,59.07
2018-11-07T01:49:29.866Z,69.07
2018-11-07T01:51:58.655Z,55.57
2018-11-07T01:54:27.506Z,58.73
2018-11-07T01:56:56.915Z,48.27
2018-11-07T01:59:25.709Z,51.50
2018-11-07T02:01:54.548Z,75.57
2018-11-07T02:04:23.383Z,63.77
2018-11-07T02:06:52.221Z,58.23
2018-11-07T02:09:21.029Z,52.77
2018-11-07T02:11:49.875Z,58.50
2018-11-07T02:14:18.706Z,59.30
2018-11-07T02:16:48.062Z,55.40
2018-11-07T02:19:16.925Z,65.70
2018-11-07T02:21:45.873Z,56.93
2018-11-07T02:24:14.709Z,55.33
2018-11-07T02:26:43.488Z,90.23
2018-11-07T02:29:13.797Z,92.80
2018-11-07T02:31:44.595Z,94.33
2018-11-07T02:34:14.129Z,75.47
2018-11-07T02:36:43.324Z,77.77
2018-11-07T02:39:13.601Z,81.77
2018-11-07T02:41:42.687Z,114.77
2018-11-07T02:44:12.438Z,100.40
2018-11-07T02:46:41.939Z,85.63
2018-11-07T02:49:10.918Z,100.03
2018-11-07T02:51:39.685Z,109.37
2018-11-07T02:54:08.537Z,118.90
2018-11-07T02:56:37.353Z,119.30
2018-11-07T02:59:06.875Z,120.03
2018-11-07T03:01:35.766Z,127.23
2018-11-07T03:04:04.854Z,126.23
2018-11-07T03:06:33.684Z,142.07
2018-11-07T03:09:02.528Z,127.90
2018-11-07T03:11:31.302Z,126.80
2018-11-07T03:14:00.102Z,124.63
2018-11-07T03:16:29.013Z,136.47
2018-11-07T03:18:58.002Z,127.60
2018-11-07T03:21:26.914Z,151.60
2018-11-07T03:23:55.800Z,131.03
2018-11-07T03:26:24.613Z,127.87
2018-11-07T03:28:53.498Z,133.67
2018-11-07T03:31:25.626Z,132.07
2018-11-07T03:33:55.165Z,126.17
2018-11-07T03:36:24.006Z,141.83
2018-11-07T03:38:52.793Z,143.90
2018-11-07T03:41:21.624Z,142.17
2018-11-07T03:43:50.511Z,157.80
2018-11-07T03:46:19.346Z,154.77
2018-11-07T03:48:48.203Z,154.53
2018-11-07T03:51:17.067Z,164.33
2018-11-07T03:53:45.948Z,180.60
2018-11-07T03:56:14.858Z,162.90
2018-11-07T03:58:43.694Z,159.73
2018-11-07T04:01:12.527Z,150.47
2018-11-07T04:03:41.330Z,144.27
2018-11-07T04:06:10.146Z,133.37
2018-11-07T04:08:38.971Z,138.20
2018-11-07T04:11:07.786Z,122.70
2018-11-07T04:13:39.624Z,134.10
2018-11-07T04:16:08.606Z,123.13
2018-11-07T04:18:37.423Z,120.10
2018-11-07T04:21:06.197Z,110.93
2018-11-07T04:23:35.043Z,118.53
2018-11-07T04:26:04.166Z,118.03
2018-11-07T04:28:33.013Z,123.97
2018-11-07T04:31:02.032Z,122.60
2018-11-07T04:33:30.843Z,127.50
2018-11-07T04:35:59.771Z,124.73
2018-11-07T04:38:28.599Z,131.43
2018-11-07T04:40:57.559Z,131.53
2018-11-07T04:43:26.419Z,127.07
2018-11-07T04:45:55.335Z,115.57
2018-11-07T04:48:24.222Z,114.23
2018-11-07T04:50:53.213Z,126.53
2018-11-07T04:53:22.323Z,124.90
2018-11-07T04:55:51.190Z,135.90
2018-11-07T04:58:20.041Z,123.83
2018-11-07T05:00:48.860Z,149.20
2018-11-07T05:03:18.041Z,140.30
2018-11-07T05:05:46.890Z,137.73
2018-11-07T05:08:15.757Z,164.93
2018-11-07T05:10:44.590Z,146.33
2018-11-07T05:13:13.380Z,142.03
2018-11-07T05:15:42.202Z,139.43
2018-11-07T05:18:11.028Z,143.67
2018-11-07T05:20:42.068Z,132.87
2018-11-07T05:23:10.874Z,115.37
2018-11-07T05:25:39.648Z,147.80
2018-11-07T05:28:08.474Z,135.73
2018-11-07T05:30:37.247Z,129.47
2018-11-07T05:33:06.110Z,146.73
2018-11-07T05:35:35.131Z,132.03
2018-11-07T05:38:04.070Z,131.53
2018-11-07T05:40:33.066Z,142.67
2018-11-07T05:43:02.875Z,138.80
2018-11-07T05:45:32.445Z,149.23
2018-11-07T05:48:01.286Z,144.20
2018-11-07T05:50:30.272Z,143.80
2018-11-07T05:52:59.165Z,136.27
2018-11-07T05:55:28.084Z,138.40
2018-11-07T05:57:56.994Z,126.13
2018-11-07T06:00:25.780Z,127.13
2018-11-07T06:02:54.649Z,136.90
2018-11-07T06:05:23.641Z,140.87
2018-11-07T06:07:52.636Z,158.53
2018-11-07T06:10:21.609Z,162.63
2018-11-07T06:12:50.809Z,146.63
2018-11-07T06:15:20.381Z,139.97
2018-11-07T06:17:49.540Z,133.97
2018-11-07T06:20:19.619Z,132.37
2018-11-07T06:22:49.272Z,134.07
2018-11-07T06:25:19.279Z,125.53
2018-11-07T06:27:49.498Z,139.03
2018-11-07T06:30:18.747Z,138.03
2018-11-07T06:32:47.997Z,138.27
2018-11-07T06:35:16.975Z,149.83
2018-11-07T06:37:46.051Z,136.77
2018-11-07T06:40:14.962Z,147.60
2018-11-07T06:42:43.912Z,141.10
2018-11-07T06:45:12.725Z,150.90
2018-11-07T06:47:41.563Z,151.47
2018-11-07T06:50:13.247Z,135.13
2018-11-07T06:52:42.261Z,132.73
2018-11-07T06:55:11.677Z,135.27
2018-11-07T06:57:40.893Z,141.93
2018-11-07T07:00:13.461Z,144.27
2018-11-07T07:02:42.942Z,170.67
2018-11-07T07:05:11.861Z,148.67
2018-11-07T07:07:40.751Z,157.90
2018-11-07T07:10:13.619Z,196.53
2018-11-07T07:12:42.592Z,189.90
2018-11-07T07:15:13.540Z,156.07
2018-11-07T07:17:42.574Z,185.53
2018-11-07T07:20:15.048Z,291.30
2018-11-07T07:22:44.607Z,157.90
2018-11-07T07:25:13.913Z,140.43
2018-11-07T07:27:43.610Z,214.47
2018-11-07T07:30:13.748Z,180.43
2018-11-07T07:32:44.241Z,171.27
2018-11-07T07:35:13.959Z,133.27
2018-11-07T07:37:42.809Z,141.47
2018-11-07T07:40:13.969Z,128.73
2018-11-07T07:42:43.590Z,165.47
2018-11-07T07:45:14.303Z,157.90
2018-11-07T07:47:43.850Z,158.27
2018-11-07T07:50:13.959Z,226.50
2018-11-07T07:52:43.458Z,222.87
2018-11-07T07:55:12.422Z,199.27
2018-11-07T07:57:41.963Z,176.20
2018-11-07T08:00:13.760Z,132.13
2018-11-07T08:02:47.109Z,207.40
2018-11-07T08:05:16.158Z,244.80
2018-11-07T08:07:45.597Z,199.13
2018-11-07T08:10:19.963Z,167.97
2018-11-07T08:12:49.387Z,126.93
2018-11-07T08:15:19.620Z,179.53
2018-11-07T08:17:48.784Z,166.60
2018-11-07T08:20:18.299Z,147.50
2018-11-07T08:22:47.876Z,173.17
2018-11-07T08:25:16.669Z,167.23
2018-11-07T08:30:21.741Z,116.50
2018-11-07T08:32:50.608Z,125.83
2018-11-07T08:35:19.477Z,121.87
2018-11-07T08:37:49.337Z,120.20
2018-11-07T08:40:19.798Z,121.17
2018-11-07T08:42:48.986Z,113.43
2018-11-07T08:45:17.778Z,104.77
2018-11-07T08:47:47.243Z,104.10
2018-11-07T08:50:20.381Z,99.53
2018-11-07T08:52:49.571Z,102.63
2018-11-07T08:55:19.766Z,110.97
2018-11-07T08:57:48.975Z,104.93
2018-11-07T09:00:22.806Z,95.90
2018-11-07T09:02:51.726Z,101.83
2018-11-07T09:05:21.522Z,92.80
2018-11-07T09:07:50.461Z,100.40
2018-11-07T09:10:20.740Z,96.23
2018-11-07T09:12:49.691Z,92.97
2018-11-07T09:15:19.690Z,99.57
2018-11-07T09:17:48.710Z,81.63
2018-11-07T09:20:20.462Z,79.53
2018-11-07T09:22:49.535Z,80.77
2018-11-07T09:25:18.427Z,83.43
2018-11-07T09:27:47.629Z,76.57
2018-11-07T09:30:18.880Z,84.30
2018-11-07T09:32:47.812Z,82.37
2018-11-07T09:35:16.879Z,83.20
2018-11-07T09:37:45.759Z,79.90
2018-11-07T09:40:16.952Z,76.33
2018-11-07T09:42:46.442Z,73.17
2018-11-07T09:45:16.604Z,78.60
2018-11-07T09:47:46.080Z,81.50
2018-11-07T09:50:21.658Z,76.97
2018-11-07T09:52:50.486Z,65.57
2018-11-07T09:55:20.409Z,68.30
2018-11-07T09:57:49.555Z,68.93
2018-11-07T10:00:19.661Z,75.63
2018-11-07T10:02:48.605Z,74.23
2018-11-07T10:05:18.990Z,68.47
2018-11-07T10:07:47.854Z,62.43
2018-11-07T10:10:18.051Z,63.77
2018-11-07T10:12:47.232Z,64.97
2018-11-07T10:15:16.277Z,63.00
2018-11-07T10:17:45.215Z,54.90
2018-11-07T10:20:17.034Z,58.63
2018-11-07T10:22:46.907Z,50.80
2018-11-07T10:25:16.236Z,60.57
2018-11-07T10:27:45.339Z,49.37
2018-11-07T10:30:16.557Z,61.20
2018-11-07T10:32:46.208Z,54.77
2018-11-07T10:35:15.197Z,57.10
2018-11-07T10:37:44.271Z,53.07
2018-11-07T10:40:19.588Z,58.23
2018-11-07T10:42:48.645Z,55.43
2018-11-07T10:45:17.478Z,48.83
2018-11-07T10:47:47.035Z,46.83
2018-11-07T10:50:17.041Z,46.83
2018-11-07T10:52:46.433Z,46.27
2018-11-07T10:55:16.081Z,42.37
2018-11-07T10:57:45.003Z,46.80
2018-11-07T11:00:20.405Z,38.90
2018-11-07T11:02:54.710Z,42.53
2018-11-07T11:05:23.555Z,42.00
2018-11-07T11:07:52.450Z,41.67
2018-11-07T11:10:21.636Z,39.83
2018-11-07T11:12:50.638Z,46.17
2018-11-07T11:15:19.493Z,42.60
2018-11-07T11:17:48.505Z,45.17
2018-11-07T11:20:17.347Z,44.23
2018-11-07T11:22:46.334Z,42.60
2018-11-07T11:25:15.247Z,45.70
2018-11-07T11:27:44.075Z,40.07
2018-11-07T11:30:12.916Z,45.43
2018-11-07T11:32:41.797Z,38.63
2018-11-07T11:35:11.536Z,39.90
2018-11-07T11:37:40.589Z,39.93
2018-11-07T11:40:11.224Z,39.57
2018-11-07T11:42:40.545Z,36.97
2018-11-07T11:45:11.194Z,38.50
2018-11-07T11:47:40.416Z,41.63
2018-11-07T11:50:12.077Z,41.17
2018-11-07T11:52:41.419Z,41.67
2018-11-07T11:55:10.863Z,39.33
2018-11-07T11:57:40.574Z,41.07
2018-11-07T12:00:12.627Z,39.17
2018-11-07T12:02:41.256Z,40.40
2018-11-07T12:05:11.756Z,39.50
2018-11-07T12:07:43.047Z,42.87
2018-11-07T12:10:19.294Z,44.50
2018-11-07T12:12:49.385Z,41.40
2018-11-07T12:15:19.503Z,40.23
2018-11-07T12:17:48.307Z,40.63
2018-11-07T12:20:17.280Z,42.23
2018-11-07T12:22:46.180Z,42.47
2018-11-07T12:25:15.855Z,39.37
2018-11-07T12:27:44.873Z,39.13
2018-11-07T12:30:15.797Z,39.63
2018-11-07T12:32:45.955Z,40.50
2018-11-07T12:35:15.409Z,41.20
2018-11-07T12:37:47.389Z,40.70
2018-11-07T12:40:16.988Z,39.70
2018-11-07T12:42:45.853Z,41.53
2018-11-07T12:45:15.603Z,42.10
2018-11-07T12:47:44.678Z,39.63
2018-11-07T12:50:16.528Z,44.03
2018-11-07T12:52:45.896Z,43.73
2018-11-07T12:55:15.202Z,41.87
2018-11-07T12:57:44.073Z,41.87
2018-11-07T13:00:16.354Z,43.10
2018-11-07T13:02:45.399Z,39.60
2018-11-07T13:05:15.427Z,39.90
2018-11-07T13:07:45.233Z,38.93
2018-11-07T13:10:20.342Z,42.67
2018-11-07T13:12:55.712Z,39.83
2018-11-07T13:15:24.755Z,42.10
2018-11-07T13:17:53.893Z,43.13
2018-11-07T13:20:26.393Z,40.23
2018-11-07T13:22:55.591Z,42.47
2018-11-07T13:25:25.472Z,42.27
2018-11-07T13:27:54.318Z,42.60
2018-11-07T13:30:23.575Z,44.77
2018-11-07T13:32:52.464Z,42.77
2018-11-07T13:35:21.732Z,47.97
2018-11-07T13:37:51.923Z,46.40
2018-11-07T13:40:22.091Z,47.50
2018-11-07T13:42:50.938Z,49.63
2018-11-07T13:45:20.979Z,46.37
2018-11-07T13:47:50.910Z,57.00
2018-11-07T13:50:20.219Z,49.70
2018-11-07T13:52:49.020Z,45.60
2018-11-07T13:55:17.901Z,48.73
2018-11-07T13:57:47.111Z,49.73
2018-11-07T14:00:17.554Z,49.03
2018-11-07T14:02:50.285Z,45.00
2018-11-07T14:05:19.600Z,52.10
2018-11-07T14:07:48.526Z,48.23
2018-11-07T14:10:19.376Z,50.63
2018-11-07T14:12:48.546Z,52.93
2018-11-07T14:15:17.580Z,48.60
2018-11-07T14:17:46.674Z,53.83
2018-11-07T14:20:15.592Z,47.27
2018-11-07T14:22:44.584Z,52.17
2018-11-07T14:25:13.909Z,48.40
2018-11-07T14:27:42.855Z,54.37
2018-11-07T14:30:13.486Z,49.07
2018-11-07T14:32:44.657Z,53.20
2018-11-07T14:35:13.992Z,53.70
2018-11-07T14:37:42.918Z,49.70
2018-11-07T14:40:11.889Z,54.30
2018-11-07T14:42:40.682Z,51.90
2018-11-07T14:45:10.559Z,48.70
2018-11-07T14:47:39.856Z,50.67
2018-11-07T14:50:09.694Z,49.23
2018-11-07T14:52:38.670Z,51.33
2018-11-07T14:55:08.408Z,49.93
2018-11-07T14:57:37.403Z,50.47
2018-11-07T15:00:10.432Z,54.37
2018-11-07T15:02:40.115Z,49.83
2018-11-07T15:05:10.546Z,58.40
2018-11-07T15:07:39.803Z,61.00
2018-11-07T15:17:14.022Z,60.40
2018-11-07T15:19:43.390Z,64.73
2018-11-07T15:22:12.666Z,62.50
2018-11-07T15:24:41.933Z,69.57
2018-11-07T15:27:11.959Z,62.93
2018-11-07T15:29:41.131Z,61.27
2018-11-07T15:32:10.223Z,59.63
2018-11-07T15:34:39.368Z,61.93
2018-11-07T15:37:08.949Z,58.17
2018-11-07T15:39:38.085Z,56.37
2018-11-07T15:42:07.384Z,54.50
2018-11-07T15:44:36.516Z,54.97
2018-11-07T15:47:05.618Z,55.83
2018-11-07T15:49:34.916Z,54.57
2018-11-07T15:52:04.246Z,67.10
2018-11-07T15:54:33.327Z,69.63
2018-11-07T15:57:02.659Z,72.30
2018-11-07T15:59:31.866Z,57.87
2018-11-07T16:02:01.017Z,61.70
2018-11-07T16:04:30.203Z,61.20
2018-11-07T16:06:59.432Z,63.73
2018-11-07T16:09:28.489Z,69.77
2018-11-07T16:11:57.605Z,103.50
2018-11-07T16:14:26.737Z,87.03
2018-11-07T16:16:55.822Z,87.20
2018-11-07T16:19:25.009Z,82.37
2018-11-07T16:21:54.170Z,63.97
2018-11-07T16:24:23.389Z,55.50
2018-11-07T16:26:52.443Z,51.67
2018-11-07T16:29:21.559Z,60.50
2018-11-07T16:31:50.883Z,60.37
2018-11-07T16:34:20.009Z,59.47
2018-11-07T16:36:49.259Z,52.63
2018-11-07T16:39:18.296Z,56.87
2018-11-07T16:41:47.717Z,49.50
2018-11-07T16:44:16.763Z,48.63
2018-11-07T16:46:46.034Z,57.40
2018-11-07T16:49:15.448Z,60.30
2018-11-07T16:51:44.924Z,55.23
2018-11-07T16:54:21.037Z,52.13
2018-11-07T16:56:51.125Z,52.03
2018-11-07T16:59:20.397Z,52.83
2018-11-07T17:01:49.562Z,47.13
2018-11-07T17:04:18.856Z,48.60
2018-11-07T17:06:47.945Z,49.83
2018-11-07T17:09:17.420Z,50.30
2018-11-07T17:11:46.541Z,47.90
2018-11-07T17:14:15.727Z,46.43
2018-11-07T17:16:44.801Z,45.10
2018-11-07T17:19:13.845Z,43.30
2018-11-07T17:21:42.963Z,41.10
2018-11-07T17:24:12.416Z,45.63
2018-11-07T17:26:41.591Z,39.80
2018-11-07T17:29:10.691Z,40.93
2018-11-07T17:31:39.968Z,38.80
2018-11-07T17:34:09.150Z,37.90
2018-11-07T17:36:41.666Z,39.30
2018-11-07T17:39:11.628Z,40.13
2018-11-07T17:41:40.897Z,36.03
2018-11-07T17:44:10.374Z,35.13
2018-11-07T17:46:39.484Z,41.03
2018-11-07T17:49:08.564Z,40.97
2018-11-07T17:51:37.789Z,41.50
2018-11-07T17:54:06.835Z,40.23
2018-11-07T17:56:36.087Z,49.13
2018-11-07T17:59:05.553Z,45.00
2018-11-07T18:01:34.591Z,40.60
2018-11-07T18:04:03.871Z,39.77
2018-11-07T18:06:33.092Z,42.63
2018-11-07T18:09:02.434Z,51.77
2018-11-07T18:11:31.801Z,57.33
2018-11-07T18:14:01.020Z,68.67
2018-11-07T18:16:30.178Z,56.87
2018-11-07T18:18:59.509Z,80.87
2018-11-07T18:21:28.654Z,65.90
2018-11-07T18:23:58.151Z,40.17
2018-11-07T18:26:27.372Z,37.93
2018-11-07T18:28:56.549Z,33.93
2018-11-07T18:31:25.723Z,34.73
2018-11-07T18:33:55.664Z,35.47
2018-11-07T18:36:24.922Z,32.80
2018-11-07T18:38:54.099Z,36.27
2018-11-07T18:41:23.274Z,33.27
2018-11-07T18:43:52.531Z,37.67
2018-11-07T18:46:21.707Z,34.97
2018-11-07T18:48:50.842Z,37.90
2018-11-07T18:51:20.090Z,36.73
2018-11-07T18:53:49.202Z,43.40
2018-11-07T18:56:18.327Z,40.90
2018-11-07T18:58:47.611Z,49.57
2018-11-07T19:01:16.621Z,43.13
2018-11-07T19:03:45.741Z,34.53
2018-11-07T19:06:15.117Z,36.17
2018-11-07T19:08:44.201Z,34.50
2018-11-07T19:11:13.542Z,35.40
2018-11-07T19:13:42.637Z,37.57
2018-11-07T19:16:11.783Z,37.47
2018-11-07T19:18:40.912Z,34.93
2018-11-07T19:21:09.964Z,35.60
2018-11-07T19:23:39.107Z,33.90
2018-11-07T19:26:08.444Z,34.97
2018-11-07T19:28:37.975Z,35.43
2018-11-07T19:31:07.183Z,43.50
2018-11-07T19:33:36.256Z,35.63
2018-11-07T19:36:05.602Z,37.33
2018-11-07T19:38:34.854Z,36.20
2018-11-07T19:41:03.991Z,36.43
2018-11-07T19:43:33.126Z,38.73
2018-11-07T19:46:02.420Z,37.40
2018-11-07T19:48:31.580Z,33.67
2018-11-07T19:51:00.817Z,33.73
2018-11-07T19:53:30.094Z,34.70
2018-11-07T19:55:59.293Z,41.83
2018-11-07T19:58:28.435Z,33.17
2018-11-07T20:00:57.660Z,34.23
2018-11-07T20:03:26.721Z,40.47
2018-11-07T20:05:55.874Z,38.73
2018-11-07T20:08:25.210Z,32.47
2018-11-07T20:10:54.387Z,28.23
2018-11-07T20:13:23.609Z,33.07
2018-11-07T20:15:53.526Z,34.97
2018-11-07T20:18:22.912Z,34.70
2018-11-07T20:20:52.204Z,36.73
2018-11-07T20:23:21.426Z,35.03
2018-11-07T20:25:50.542Z,43.23
2018-11-07T20:28:19.665Z,36.57
2018-11-07T20:30:48.856Z,34.80
2018-11-07T20:33:20.335Z,36.77
2018-11-07T20:35:49.738Z,36.03
2018-11-07T20:38:18.748Z,36.80
2018-11-07T20:40:47.884Z,41.73
2018-11-07T20:43:17.663Z,37.30
2018-11-07T20:45:46.701Z,44.73
2018-11-07T20:48:15.737Z,38.73
2018-11-07T20:50:44.796Z,39.13
2018-11-07T20:53:13.888Z,35.63
2018-11-07T20:55:43.024Z,41.40
2018-11-07T20:58:12.285Z,44.27
2018-11-07T21:00:41.409Z,43.80
2018-11-07T21:03:10.953Z,40.33
2018-11-07T21:05:40.298Z,35.87
2018-11-07T21:08:09.589Z,37.10
2018-11-07T21:10:38.684Z,40.50
2018-11-07T21:13:07.736Z,36.00
2018-11-07T21:15:36.857Z,36.87
2018-11-07T21:18:06.150Z,33.77
2018-11-07T21:20:35.427Z,39.13
2018-11-07T21:23:05.249Z,35.17
2018-11-07T21:25:34.675Z,35.23
2018-11-07T21:28:04.061Z,35.17
2018-11-07T21:30:33.288Z,30.97
2018-11-07T21:33:02.485Z,33.67
2018-11-07T21:35:31.671Z,37.70
2018-11-07T21:38:00.909Z,34.00
2018-11-07T21:40:30.672Z,38.20
2018-11-07T21:42:59.785Z,34.33
2018-11-07T21:45:28.936Z,38.47
2018-11-07T21:47:58.108Z,38.57
2018-11-07T21:50:27.233Z,39.13
2018-11-07T21:52:56.337Z,38.80
2018-11-07T21:55:25.499Z,37.17
2018-11-07T21:57:54.693Z,32.07
2018-11-07T22:00:23.856Z,33.27
2018-11-07T22:02:55.786Z,33.27
2018-11-07T22:05:24.889Z,35.37
2018-11-07T22:07:54.024Z,31.43
2018-11-07T22:10:23.097Z,31.90
2018-11-07T22:12:52.401Z,34.67
2018-11-07T22:15:21.422Z,32.33
2018-11-07T22:17:50.489Z,32.33
2018-11-07T22:20:21.280Z,36.67
2018-11-07T22:22:50.406Z,35.63
2018-11-07T22:25:19.621Z,34.00
2018-11-07T22:27:48.710Z,33.20
2018-11-07T22:30:18.619Z,35.50
2018-11-07T22:32:47.838Z,35.17
2018-11-07T22:35:17.922Z,34.43
2018-11-07T22:37:47.345Z,34.57
2018-11-07T22:40:17.847Z,35.43
2018-11-07T22:42:47.059Z,34.07
2018-11-07T22:45:17.361Z,32.43
2018-11-07T22:47:46.616Z,38.67
2018-11-07T22:50:16.318Z,34.93
2018-11-07T22:52:46.011Z,35.90
2018-11-07T22:55:15.323Z,31.80
2018-11-07T22:57:44.445Z,30.20
2018-11-07T23:00:22.225Z,31.37
2018-11-07T23:02:52.758Z,30.73
2018-11-07T23:05:21.900Z,28.03
2018-11-07T23:07:51.436Z,38.40
2018-11-07T23:10:20.583Z,34.73
2018-11-07T23:12:50.380Z,33.17
2018-11-07T23:15:24.912Z,29.80
2018-11-07T23:17:54.173Z,25.27
2018-11-07T23:20:23.380Z,24.63
2018-11-07T23:22:52.641Z,25.93
2018-11-07T23:25:22.006Z,21.33
2018-11-07T23:27:51.131Z,24.43
2018-11-07T23:30:20.152Z,24.07
2018-11-07T23:32:53.736Z,20.47
2018-11-07T23:35:23.234Z,24.77
2018-11-07T23:37:52.291Z,21.37
2018-11-07T23:40:21.368Z,19.17
2018-11-07T23:42:50.436Z,21.23
2018-11-07T23:45:19.617Z,20.00
2018-11-07T23:47:48.679Z,20.03
2018-11-07T23:50:17.854Z,18.03
2018-11-07T23:52:47.193Z,17.00
2018-11-07T23:55:17.523Z,18.00
2018-11-07T23:57:47.075Z,17.33
